Time;durP1;ratioP1;P1;durP2;ratioP2;P2;SDS_P1;SDS_P2;PMS_P1;PMS_P2;Temp;Humidity;BMP_temperature;BMP_pressure;BME280_temperature;BME280_humidity;BME280_pressure;Samples;Min_cycle;Max_cycle;Signal;HPM_P1;HPM_P2
2021/08/02 00:00:08;;;;;;;;;2.00;1.75;;;;;25.06;43.29;101018.25;5035866;28;50956;-56
2021/08/02 00:02:56;;;;;;;;;0.25;0.00;;;;;25.05;43.40;101020.19;5035894;28;51185;-56
2021/08/02 00:05:22;;;;;;;;;1.00;1.00;;;;;25.06;43.37;101021.03;5036230;28;51362;-55
2021/08/02 00:07:59;;;;;;;;;1.75;1.75;;;;;25.05;43.41;101017.41;5035291;28;51953;-57
2021/08/02 00:10:31;;;;;;;;;0.50;0.50;;;;;25.04;43.58;101018.50;5036116;28;50971;-56
2021/08/02 00:13:01;;;;;;;;;0.00;0.00;;;;;25.04;43.47;101015.75;5036115;28;50982;-54
2021/08/02 00:15:27;;;;;;;;;1.00;1.00;;;;;25.02;43.42;101018.78;5035771;28;50966;-56
2021/08/02 00:17:52;;;;;;;;;0.75;0.75;;;;;25.03;43.49;101014.91;5035500;28;51144;-54
2021/08/02 00:20:21;;;;;;;;;0.00;0.00;;;;;25.03;43.10;101012.13;5035737;28;51250;-55
2021/08/02 00:22:47;;;;;;;;;1.00;1.00;;;;;25.03;43.53;101005.75;5035739;28;51172;-55
2021/08/02 00:25:13;;;;;;;;;1.00;1.00;;;;;25.02;43.37;101013.22;5035925;28;51047;-55
2021/08/02 00:27:39;;;;;;;;;1.75;0.00;;;;;25.03;43.47;101020.44;5035439;28;52129;-55
2021/08/02 00:30:07;;;;;;;;;2.75;0.00;;;;;25.03;43.82;101008.53;5035509;28;51073;-55
2021/08/02 00:32:34;;;;;;;;;0.00;0.00;;;;;25.04;43.41;101015.75;5034302;28;51169;-56
2021/08/02 00:35:00;;;;;;;;;0.00;0.00;;;;;25.02;43.75;101018.78;5035959;28;51331;-56
2021/08/02 00:37:32;;;;;;;;;1.00;1.00;;;;;25.03;43.52;101022.38;5034120;28;51309;-55
2021/08/02 00:40:15;;;;;;;;;0.25;0.25;;;;;25.03;43.20;101016.84;5035517;28;51349;-56
2021/08/02 00:42:46;;;;;;;;;0.25;0.25;;;;;25.02;43.53;101017.94;5035736;28;51107;-58
2021/08/02 00:45:20;;;;;;;;;0.75;0.00;;;;;25.02;43.65;101018.78;5035637;28;51202;-57
2021/08/02 00:48:01;;;;;;;;;1.25;1.25;;;;;25.01;43.45;101017.09;5035164;28;51704;-57
2021/08/02 00:50:30;;;;;;;;;1.00;1.00;;;;;25.01;43.30;101025.41;5035572;28;51029;-57
2021/08/02 00:53:00;;;;;;;;;0.00;0.00;;;;;25.02;43.61;101021.53;5035655;28;51077;-56
2021/08/02 00:55:31;;;;;;;;;1.00;1.00;;;;;25.02;43.55;101020.69;5037826;28;51125;-56
2021/08/02 00:58:01;;;;;;;;;1.75;1.00;;;;;25.01;43.55;101022.63;5038827;28;51304;-57
2021/08/02 01:00:27;;;;;;;;;1.00;1.00;;;;;25.00;43.48;101012.56;5038774;28;51057;-55
2021/08/02 01:02:52;;;;;;;;;1.25;1.25;;;;;25.00;43.52;101020.06;5038898;28;51015;-57
2021/08/02 01:05:20;;;;;;;;;1.75;1.00;;;;;25.01;43.76;101018.97;5039102;28;50934;-56
2021/08/02 01:07:57;;;;;;;;;1.00;1.00;;;;;24.99;43.68;101016.44;5038370;28;51021;-56
2021/08/02 01:10:24;;;;;;;;;1.00;1.00;;;;;24.99;43.79;101021.97;5038825;28;51201;-57
2021/08/02 01:12:51;;;;;;;;;0.75;0.75;;;;;25.00;43.45;101020.88;5038821;28;51222;-57
2021/08/02 01:15:18;;;;;;;;;0.00;0.00;;;;;25.00;43.67;101022.81;5038738;28;50968;-56
2021/08/02 01:17:45;;;;;;;;;0.25;0.25;;;;;25.00;43.64;101015.34;5038257;28;52800;-56
2021/08/02 01:20:11;;;;;;;;;2.00;1.00;;;;;24.99;43.72;101013.66;5038407;28;51112;-57
2021/08/02 01:22:38;;;;;;;;;0.00;0.00;;;;;25.00;43.76;101020.06;5038792;28;51173;-56
2021/08/02 01:25:38;;;;;;;;;1.00;1.00;;;;;25.00;43.38;101017.28;5038593;28;51278;-57
2021/08/02 01:28:24;;;;;;;;;2.00;1.50;;;;;25.00;43.48;101025.59;5037868;28;51014;-56
2021/08/02 01:30:57;;;;;;;;;0.25;0.25;;;;;24.99;43.74;101021.16;5006903;28;51269;-56
2021/08/02 01:33:31;;;;;;;;;1.00;1.00;;;;;24.98;43.54;101023.06;5038492;28;51041;-57
2021/08/02 01:36:00;;;;;;;;;1.25;1.00;;;;;24.98;43.65;101022.22;5038768;28;51023;-57
2021/08/02 01:38:28;;;;;;;;;1.00;1.00;;;;;24.97;43.51;101024.16;5037963;28;53240;-57
2021/08/02 01:40:54;;;;;;;;;0.00;0.00;;;;;24.97;43.76;101015.00;5038435;28;51109;-57
2021/08/02 01:43:20;;;;;;;;;1.00;1.00;;;;;24.97;43.79;101020.56;5038159;28;51182;-57
2021/08/02 01:45:55;;;;;;;;;0.75;0.75;;;;;24.98;43.56;101025.00;5038409;28;50975;-57
2021/08/02 01:49:01;;;;;;;;;0.25;0.25;;;;;24.98;43.78;101025.00;5037942;28;52041;-56
2021/08/02 01:51:32;;;;;;;;;0.00;0.00;;;;;24.96;43.85;101019.72;5037990;28;51316;-56
2021/08/02 01:54:11;;;;;;;;;1.00;1.00;;;;;24.96;43.78;101016.94;5038287;28;51195;-57
2021/08/02 01:56:42;;;;;;;;;2.00;0.25;;;;;24.96;43.83;101019.72;5038306;28;51173;-56
2021/08/02 01:59:13;;;;;;;;;0.00;0.00;;;;;24.96;43.67;101024.41;5037803;28;51717;-56
2021/08/02 02:01:45;;;;;;;;;2.00;1.00;;;;;24.97;43.79;101026.09;5037823;28;51360;-57
2021/08/02 02:04:11;;;;;;;;;0.75;0.50;;;;;24.96;44.09;101029.97;5037963;28;51188;-56
2021/08/02 02:06:40;;;;;;;;;2.50;1.00;;;;;24.95;43.99;101025.50;5037111;28;51413;-55
2021/08/02 02:09:08;;;;;;;;;1.00;1.00;;;;;24.95;43.95;101031.91;5037468;28;51019;-55
2021/08/02 02:11:34;;;;;;;;;0.00;0.00;;;;;24.95;43.94;101026.34;5037828;28;51873;-56
2021/08/02 02:14:03;;;;;;;;;0.25;0.25;;;;;24.96;43.96;101027.19;5038317;28;51064;-56
2021/08/02 02:16:34;;;;;;;;;0.00;0.00;;;;;24.96;43.92;101027.19;5037708;28;50890;-55
2021/08/02 02:19:03;;;;;;;;;0.00;0.00;;;;;24.96;43.79;101029.97;5037078;28;51029;-56
2021/08/02 02:21:31;;;;;;;;;1.00;0.00;;;;;24.95;43.75;101019.97;5037416;28;51402;-57
2021/08/02 02:23:58;;;;;;;;;1.50;1.00;;;;;24.95;43.82;101026.34;5037582;28;51085;-55
2021/08/02 02:26:29;;;;;;;;;0.00;0.00;;;;;24.95;43.51;101026.34;5037586;28;51054;-56
2021/08/02 02:29:03;;;;;;;;;0.50;0.50;;;;;24.94;43.77;101008.03;5037148;28;52015;-58
2021/08/02 02:31:29;;;;;;;;;0.50;0.50;;;;;24.94;43.81;101018.28;5037318;28;50975;-57
2021/08/02 02:34:00;;;;;;;;;1.25;1.25;;;;;24.94;43.94;101021.06;5037605;28;50972;-57
2021/08/02 02:36:28;;;;;;;;;0.75;0.75;;;;;24.94;43.74;101015.53;5037451;28;51180;-57
2021/08/02 02:38:53;;;;;;;;;2.00;2.00;;;;;24.93;43.92;101013.84;5037337;28;51971;-56
2021/08/02 02:41:20;;;;;;;;;1.50;1.50;;;;;24.93;43.64;101019.38;5037471;28;51127;-56
2021/08/02 02:43:48;;;;;;;;;1.00;0.00;;;;;24.93;43.89;101020.22;5037217;28;50918;-58
2021/08/02 02:46:15;;;;;;;;;0.00;0.00;;;;;24.93;44.01;101017.44;5037498;28;51154;-59
2021/08/02 02:48:40;;;;;;;;;1.00;1.00;;;;;24.93;43.96;101016.63;5036996;28;51103;-57
2021/08/02 02:51:06;;;;;;;;;1.00;1.00;;;;;24.93;43.63;101022.16;5037196;28;51063;-60
2021/08/02 02:53:33;;;;;;;;;0.75;0.75;;;;;24.92;43.68;101023.25;5037168;28;50973;-56
2021/08/02 02:56:06;;;;;;;;;1.75;1.00;;;;;24.92;43.65;101024.09;5037458;28;50969;-57
2021/08/02 02:58:31;;;;;;;;;1.00;1.00;;;;;24.92;43.54;101026.84;5037072;28;51019;-56
2021/08/02 03:00:57;;;;;;;;;2.75;1.00;;;;;24.93;43.95;101016.63;5037035;28;51101;-57
2021/08/02 03:03:24;;;;;;;;;0.50;0.50;;;;;24.91;43.75;101016.88;5037518;28;51358;-57
2021/08/02 03:05:51;;;;;;;;;3.25;1.00;;;;;24.92;43.91;101021.31;5037295;28;51248;-55
2021/08/02 03:08:18;;;;;;;;;1.00;1.00;;;;;24.92;43.64;101026.00;5036628;28;52132;-56
2021/08/02 03:10:47;;;;;;;;;0.75;0.75;;;;;24.92;43.76;101026.00;5036683;28;51349;-56
2021/08/02 03:13:12;;;;;;;;;1.00;0.75;;;;;24.92;43.89;101029.63;5037040;28;51063;-56
2021/08/02 03:15:38;;;;;;;;;1.50;1.00;;;;;24.91;43.88;101022.41;5036789;28;50935;-57
2021/08/02 03:18:04;;;;;;;;;2.25;1.75;;;;;24.91;43.95;101019.63;5036121;28;51795;-57
2021/08/02 03:20:29;;;;;;;;;1.00;1.00;;;;;24.92;43.81;101028.78;5036479;28;50962;-55
2021/08/02 03:23:10;;;;;;;;;1.00;1.00;;;;;24.90;44.00;101023.47;5036683;28;51028;-54
2021/08/02 03:25:56;;;;;;;;;2.00;1.50;;;;;24.92;43.75;101028.78;5037072;28;51017;-56
2021/08/02 03:28:32;;;;;;;;;2.00;2.00;;;;;24.90;43.63;101026.25;5016557;28;51158;-56
2021/08/02 03:31:02;;;;;;;;;0.75;0.75;;;;;24.89;44.00;101027.31;5016576;28;50946;-55
2021/08/02 03:33:33;;;;;;;;;2.00;0.00;;;;;24.90;43.91;101029.00;5016615;28;51031;-55
2021/08/02 03:36:01;;;;;;;;;0.50;0.50;;;;;24.90;43.84;101037.31;5016879;28;50969;-55
2021/08/02 03:38:28;;;;;;;;;1.25;1.00;;;;;24.89;44.00;101035.63;5016337;28;51781;-56
2021/08/02 03:40:55;;;;;;;;;2.00;1.00;;;;;24.89;43.85;101041.19;5016545;28;51144;-56
2021/08/02 03:43:21;;;;;;;;;2.00;2.00;;;;;24.89;44.01;101043.13;5016622;28;51154;-54
2021/08/02 03:45:47;;;;;;;;;1.25;0.75;;;;;24.89;43.90;101041.19;5016384;28;51077;-53
2021/08/02 03:48:12;;;;;;;;;1.00;1.00;;;;;24.90;43.97;101042.03;5016022;28;51163;-53
2021/08/02 03:50:38;;;;;;;;;0.25;0.25;;;;;24.90;44.04;101042.03;5016650;28;51098;-53
2021/08/02 03:53:04;;;;;;;;;0.50;0.50;;;;;24.88;44.06;101045.03;5016316;28;51070;-53
2021/08/02 03:55:33;;;;;;;;;1.00;1.00;;;;;24.88;43.90;101045.03;5016737;28;50973;-56
2021/08/02 03:57:58;;;;;;;;;1.00;1.00;;;;;24.88;44.12;101050.59;5016078;28;51156;-56
2021/08/02 04:00:24;;;;;;;;;1.00;1.00;;;;;24.89;43.88;101048.66;5016099;28;51121;-57
2021/08/02 04:02:50;;;;;;;;;2.75;1.00;;;;;24.89;43.99;101054.19;5016199;28;51105;-56
2021/08/02 04:05:19;;;;;;;;;2.00;2.00;;;;;24.88;44.12;101052.53;5016444;28;51395;-56
2021/08/02 04:07:46;;;;;;;;;1.00;1.00;;;;;24.87;43.97;101065.53;5015846;28;50953;-56
2021/08/02 04:10:12;;;;;;;;;1.00;1.00;;;;;24.88;43.86;101069.16;5015992;28;51179;-56
2021/08/02 04:12:38;;;;;;;;;1.00;0.00;;;;;24.89;44.11;101068.06;5016529;28;51453;-57
2021/08/02 04:15:06;;;;;;;;;1.00;1.00;;;;;24.88;43.94;101063.59;5015846;28;51278;-56
2021/08/02 04:17:31;;;;;;;;;1.00;1.00;;;;;24.87;43.87;101070.22;5016099;28;51747;-57
2021/08/02 04:19:56;;;;;;;;;1.00;1.00;;;;;24.88;43.81;101080.22;5015609;28;50983;-57
2021/08/02 04:22:22;;;;;;;;;2.75;1.75;;;;;24.85;44.13;101078.78;5016116;28;51186;-57
2021/08/02 04:24:47;;;;;;;;;0.75;0.75;;;;;24.86;44.10;101079.63;5032171;28;51184;-56
2021/08/02 04:27:12;;;;;;;;;1.25;1.25;;;;;24.85;44.14;101078.78;5035544;28;50993;-58
2021/08/02 04:29:37;;;;;;;;;1.50;0.25;;;;;24.86;44.05;101085.19;5034964;28;51138;-56
2021/08/02 04:32:03;;;;;;;;;4.50;2.00;;;;;24.86;44.20;101087.94;5035624;28;51181;-57
2021/08/02 04:34:29;;;;;;;;;2.50;1.00;;;;;24.86;43.94;101090.72;5035909;28;51319;-55
2021/08/02 04:36:54;;;;;;;;;1.00;1.00;;;;;24.86;43.93;101085.19;5035567;28;52741;-56
2021/08/02 04:39:19;;;;;;;;;1.00;1.00;;;;;24.86;43.75;101085.19;5035633;28;51358;-57
2021/08/02 04:41:44;;;;;;;;;1.00;1.00;;;;;24.85;44.24;101087.09;5035579;28;51035;-55
2021/08/02 04:44:10;;;;;;;;;1.75;1.75;;;;;24.85;43.67;101078.78;5035965;28;51247;-55
2021/08/02 04:46:35;;;;;;;;;1.25;1.25;;;;;24.85;43.98;101080.72;5034989;28;53014;-56
2021/08/02 04:49:01;;;;;;;;;0.25;0.25;;;;;24.84;44.02;101082.66;5035523;28;51224;-56
2021/08/02 04:51:26;;;;;;;;;1.00;1.00;;;;;24.84;43.83;101077.13;5035623;28;51055;-56
2021/08/02 04:53:52;;;;;;;;;1.00;1.00;;;;;24.85;43.88;101086.28;5036036;28;50967;-55
2021/08/02 04:56:17;;;;;;;;;1.00;1.00;;;;;24.84;44.17;101084.59;5035119;28;51084;-57
2021/08/02 04:58:42;;;;;;;;;1.00;0.50;;;;;24.84;44.15;101085.44;5035504;28;51114;-56
2021/08/02 05:01:08;;;;;;;;;3.25;2.00;;;;;24.85;44.17;101075.19;5035497;28;51165;-56
2021/08/02 05:03:33;;;;;;;;;0.75;0.75;;;;;24.84;43.87;101079.03;5035441;28;51272;-56
2021/08/02 05:05:59;;;;;;;;;0.00;0.00;;;;;24.84;44.11;101077.13;5035163;28;52582;-56
2021/08/02 05:08:24;;;;;;;;;1.00;1.00;;;;;24.85;44.30;101083.50;5035127;28;51140;-56
2021/08/02 05:10:50;;;;;;;;;1.00;1.00;;;;;24.84;44.08;101082.66;5035414;28;51053;-55
2021/08/02 05:13:15;;;;;;;;;2.00;2.00;;;;;24.85;44.06;101083.50;5035449;28;51323;-55
2021/08/02 05:15:41;;;;;;;;;1.00;1.00;;;;;24.84;43.97;101090.13;5034804;28;52715;-55
2021/08/02 05:18:06;;;;;;;;;1.00;1.00;;;;;24.84;44.15;101088.19;5034763;28;51063;-54
2021/08/02 05:20:32;;;;;;;;;1.00;1.00;;;;;24.85;43.98;101086.28;5034896;28;51029;-57
2021/08/02 05:22:57;;;;;;;;;1.50;1.50;;;;;24.83;44.18;101086.53;5035268;28;51302;-56
2021/08/02 05:25:23;;;;;;;;;2.00;2.00;;;;;24.84;43.88;101090.97;5034941;28;51763;-56
2021/08/02 05:27:52;;;;;;;;;1.00;1.00;;;;;24.84;43.95;101092.91;5034855;28;50900;-55
2021/08/02 05:30:18;;;;;;;;;1.00;0.50;;;;;24.83;44.01;101100.38;5034878;28;51188;-57
2021/08/02 05:32:44;;;;;;;;;1.75;1.75;;;;;24.84;43.89;101103.97;5034860;28;51101;-56
2021/08/02 05:35:11;;;;;;;;;1.50;1.50;;;;;24.84;43.63;101098.44;5034622;28;51177;-56
2021/08/02 05:37:36;;;;;;;;;2.50;1.00;;;;;24.84;44.00;101098.44;5035003;28;51303;-55
2021/08/02 05:40:03;;;;;;;;;0.50;0.50;;;;;24.84;43.94;101099.28;5034906;28;50994;-55
2021/08/02 05:42:28;;;;;;;;;1.75;1.75;;;;;24.85;43.55;101106.50;5037111;28;51074;-55
2021/08/02 05:44:54;;;;;;;;;1.50;0.75;;;;;24.85;43.84;101100.97;5037623;28;51789;-55
2021/08/02 05:47:19;;;;;;;;;0.25;0.25;;;;;24.85;44.13;101095.44;5038305;28;50975;-55
2021/08/02 05:49:44;;;;;;;;;2.25;0.75;;;;;24.85;43.99;101100.97;5037918;28;51097;-55
2021/08/02 05:52:10;;;;;;;;;1.00;1.00;;;;;24.86;43.92;101110.97;5038295;28;51004;-57
2021/08/02 05:54:35;;;;;;;;;1.00;1.00;;;;;24.84;43.88;101103.97;5038046;28;52025;-55
2021/08/02 05:57:01;;;;;;;;;1.75;1.75;;;;;24.85;44.13;101108.44;5037870;28;50965;-56
2021/08/02 05:59:27;;;;;;;;;3.75;1.00;;;;;24.85;44.13;101105.66;5038092;28;51087;-56
2021/08/02 06:01:52;;;;;;;;;0.75;0.75;;;;;24.85;44.31;101111.22;5037868;28;51395;-56
2021/08/02 06:04:17;;;;;;;;;2.75;2.00;;;;;24.86;43.64;101112.88;5037573;28;54657;-55
2021/08/02 06:06:43;;;;;;;;;1.00;1.00;;;;;24.85;44.09;101112.03;5037732;28;51114;-55
2021/08/02 06:09:10;;;;;;;;;0.50;0.50;;;;;24.85;43.72;101111.22;5037837;28;51073;-57
2021/08/02 06:11:36;;;;;;;;;2.00;1.00;;;;;24.85;43.92;101116.75;5038162;28;51273;-55
2021/08/02 06:14:01;;;;;;;;;1.75;1.75;;;;;24.85;44.21;101116.75;5037343;28;50959;-56
2021/08/02 06:16:27;;;;;;;;;2.00;1.00;;;;;24.85;44.18;101109.28;5035902;28;53185;-55
2021/08/02 06:18:52;;;;;;;;;1.00;1.00;;;;;24.86;43.99;101113.72;5037191;28;51129;-54
2021/08/02 06:21:17;;;;;;;;;2.00;0.25;;;;;24.86;44.15;101118.44;5037905;28;51073;-56
2021/08/02 06:23:42;;;;;;;;;1.00;1.00;;;;;24.85;44.09;101120.34;5037217;28;51977;-56
2021/08/02 06:26:08;;;;;;;;;2.00;1.50;;;;;24.85;44.33;101116.75;5037638;28;50898;-56
2021/08/02 06:28:33;;;;;;;;;1.25;1.25;;;;;24.87;44.31;101120.09;5037680;28;51525;-54
2021/08/02 06:31:01;;;;;;;;;1.25;1.25;;;;;24.87;44.08;101117.34;5037444;28;51090;-56
2021/08/02 06:33:26;;;;;;;;;1.00;1.00;;;;;24.87;43.92;101131.19;5037273;28;52004;-57
2021/08/02 06:35:52;;;;;;;;;1.50;1.50;;;;;24.86;43.67;101112.88;5037521;28;51018;-57
2021/08/02 06:38:17;;;;;;;;;1.50;1.50;;;;;24.85;44.14;101116.75;5037431;28;51039;-57
2021/08/02 06:40:44;;;;;;;;;2.00;1.75;;;;;24.87;44.13;101125.66;5037380;28;51304;-58
2021/08/02 06:43:09;;;;;;;;;0.25;0.25;;;;;24.85;43.87;101125.91;5036907;28;52052;-56
2021/08/02 06:45:34;;;;;;;;;1.00;1.00;;;;;24.86;44.09;101121.19;5036692;28;51192;-61
2021/08/02 06:48:00;;;;;;;;;2.50;2.00;;;;;24.85;43.76;101125.06;5037133;28;51138;-57
2021/08/02 06:50:25;;;;;;;;;2.00;2.00;;;;;24.86;43.88;101130.34;5037165;28;51255;-59
2021/08/02 06:52:52;;;;;;;;;2.75;2.50;;;;;24.87;43.86;101123.72;5036600;28;51006;-58
2021/08/02 06:55:18;;;;;;;;;2.25;2.25;;;;;24.86;43.91;101140.59;5036695;28;50941;-57
2021/08/02 06:57:43;;;;;;;;;2.75;1.25;;;;;24.86;43.75;101130.34;5036833;28;51138;-57
2021/08/02 07:00:09;;;;;;;;;4.00;2.25;;;;;24.85;43.86;101134.22;5037000;28;51261;-56
2021/08/02 07:02:35;;;;;;;;;4.00;2.00;;;;;24.87;43.90;101139.50;5036995;28;51833;-57
2021/08/02 07:05:00;;;;;;;;;1.00;1.00;;;;;24.86;43.78;101135.06;5036970;28;50896;-57
2021/08/02 07:07:25;;;;;;;;;2.75;2.00;;;;;24.85;43.86;101138.91;5036699;28;51102;-56
2021/08/02 07:09:51;;;;;;;;;1.50;1.50;;;;;24.85;43.98;101136.16;5037128;28;51019;-57
2021/08/02 07:12:16;;;;;;;;;3.25;2.00;;;;;24.85;43.93;101145.28;5036561;28;51151;-57
2021/08/02 07:14:41;;;;;;;;;2.00;2.00;;;;;24.85;44.13;101136.97;5036141;28;57260;-57
2021/08/02 07:17:07;;;;;;;;;3.50;2.75;;;;;24.86;44.16;101146.13;5036600;28;51080;-56
2021/08/02 07:19:32;;;;;;;;;4.75;1.75;;;;;24.85;44.10;101142.53;5036430;28;51418;-57
2021/08/02 07:21:57;;;;;;;;;1.00;1.00;;;;;24.86;44.01;101141.44;5035025;28;52715;-56
2021/08/02 07:24:23;;;;;;;;;3.50;3.00;;;;;24.86;43.99;101137.81;5036766;28;51058;-57
2021/08/02 07:26:48;;;;;;;;;3.00;2.00;;;;;24.86;44.34;101140.59;5036580;28;51041;-58
2021/08/02 07:29:13;;;;;;;;;2.00;2.00;;;;;24.86;44.01;101146.13;5036808;28;51105;-58
2021/08/02 07:31:39;;;;;;;;;2.50;1.75;;;;;24.85;44.06;101136.16;5035719;28;51006;-57
2021/08/02 07:34:04;;;;;;;;;3.00;1.75;;;;;24.86;44.12;101140.59;5036030;28;51016;-61
2021/08/02 07:36:29;;;;;;;;;3.00;1.25;;;;;24.85;44.03;101144.47;5036219;28;51038;-56
2021/08/02 07:38:55;;;;;;;;;2.75;2.00;;;;;24.86;43.86;101137.81;5036438;28;51333;-56
2021/08/02 07:41:20;;;;;;;;;2.50;2.50;;;;;24.86;43.91;101140.59;5036132;28;51063;-56
2021/08/02 07:43:46;;;;;;;;;1.50;1.00;;;;;24.87;44.22;101140.34;5035993;28;51098;-56
2021/08/02 07:46:14;;;;;;;;;2.00;2.00;;;;;24.86;44.12;101140.59;5036097;28;51173;-56
2021/08/02 07:48:40;;;;;;;;;1.00;1.00;;;;;24.85;43.91;101139.75;5036211;28;50943;-57
2021/08/02 07:51:06;;;;;;;;;5.00;3.00;;;;;24.86;44.13;101140.59;5035717;28;51019;-56
2021/08/02 07:53:31;;;;;;;;;2.00;1.50;;;;;24.86;44.21;101143.38;5036024;28;50982;-58
2021/08/02 07:55:57;;;;;;;;;3.00;2.75;;;;;24.87;43.91;101153.34;5036172;28;51101;-55
2021/08/02 07:58:22;;;;;;;;;2.75;2.00;;;;;24.85;43.81;101145.28;5036050;28;50926;-56
2021/08/02 08:00:48;;;;;;;;;2.75;2.00;;;;;24.86;44.08;101152.53;5035363;28;51259;-57
2021/08/02 08:03:13;;;;;;;;;3.00;3.00;;;;;24.88;43.93;101150.34;5035743;28;51120;-56
2021/08/02 08:05:40;;;;;;;;;2.50;1.25;;;;;24.87;43.77;101143.13;5034904;28;51288;-56
2021/08/02 08:08:05;;;;;;;;;3.00;1.75;;;;;24.88;44.08;101146.72;5036119;28;51000;-57
2021/08/02 08:10:30;;;;;;;;;3.50;2.75;;;;;24.87;43.94;101137.56;5035548;28;51753;-56
2021/08/02 08:12:56;;;;;;;;;3.00;3.00;;;;;24.90;43.77;101141.78;5035533;28;51124;-57
2021/08/02 08:15:24;;;;;;;;;2.25;2.00;;;;;24.88;43.89;101142.03;5035336;28;51651;-56
2021/08/02 08:17:50;;;;;;;;;4.50;2.75;;;;;24.90;43.84;101134.31;5035623;28;51193;-57
2021/08/02 08:20:18;;;;;;;;;3.25;3.25;;;;;24.91;43.95;101143.50;5035354;28;51203;-56
2021/08/02 08:22:43;;;;;;;;;2.00;1.25;;;;;24.91;43.90;101144.34;5035501;28;51021;-57
2021/08/02 08:25:09;;;;;;;;;2.50;2.25;;;;;24.90;43.95;101141.78;5035548;28;51404;-57
2021/08/02 08:27:35;;;;;;;;;4.25;1.50;;;;;24.91;43.73;101137.94;5035821;28;51343;-56
2021/08/02 08:30:01;;;;;;;;;5.50;3.25;;;;;24.90;43.61;101133.47;5034887;28;52636;-56
2021/08/02 08:32:27;;;;;;;;;2.50;2.00;;;;;24.92;44.25;101134.09;5035264;28;51030;-57
2021/08/02 08:34:53;;;;;;;;;3.00;2.75;;;;;24.91;43.98;101130.47;5035414;28;51026;-57
2021/08/02 08:37:18;;;;;;;;;5.25;3.00;;;;;24.93;43.80;101136.59;5035459;28;51038;-56
2021/08/02 08:39:44;;;;;;;;;3.50;3.25;;;;;24.94;43.82;101137.44;5034990;28;51687;-57
2021/08/02 08:42:09;;;;;;;;;3.75;3.00;;;;;24.93;43.95;101131.06;5035364;28;51101;-57
2021/08/02 08:44:35;;;;;;;;;4.00;3.50;;;;;24.94;43.83;101126.38;5035061;28;51094;-54
2021/08/02 08:47:01;;;;;;;;;2.50;1.75;;;;;24.94;43.76;101129.13;5035271;28;51228;-55
2021/08/02 08:49:26;;;;;;;;;2.25;2.25;;;;;24.95;43.81;101136.34;5034738;28;51960;-54
2021/08/02 08:51:55;;;;;;;;;3.00;2.50;;;;;24.95;43.63;101128.03;5035147;28;51045;-56
2021/08/02 08:54:22;;;;;;;;;2.25;2.25;;;;;24.95;43.73;101128.88;5035445;28;51566;-53
2021/08/02 08:56:47;;;;;;;;;6.00;2.75;;;;;24.96;43.49;101136.09;5035007;28;51008;-55
2021/08/02 08:59:13;;;;;;;;;1.50;1.50;;;;;24.97;43.82;101132.25;5034755;28;50928;-56
2021/08/02 09:01:40;;;;;;;;;4.25;2.75;;;;;24.98;43.90;101133.09;5034579;28;51304;-56
2021/08/02 09:04:05;;;;;;;;;3.75;3.00;;;;;24.98;43.49;101131.16;5034813;28;51227;-56
2021/08/02 09:06:32;;;;;;;;;8.50;3.50;;;;;24.98;43.75;101130.31;5033587;28;51317;-56
2021/08/02 09:08:57;;;;;;;;;3.25;3.00;;;;;25.01;43.63;101135.34;5034381;28;51934;-56
2021/08/02 09:11:25;;;;;;;;;4.25;3.00;;;;;25.02;43.62;101137.94;5034810;28;51046;-55
2021/08/02 09:13:52;;;;;;;;;5.50;5.00;;;;;25.03;43.60;101138.78;5035270;28;51456;-57
2021/08/02 09:16:27;;;;;;;;;4.00;3.00;;;;;25.03;43.79;101134.09;5036785;28;50964;-55
2021/08/02 09:19:18;;;;;;;;;4.25;4.00;;;;;25.07;43.44;101139.97;5037457;28;51886;-55
2021/08/02 09:21:49;;;;;;;;;3.50;2.50;;;;;25.08;43.57;101126.94;5034810;28;51697;-55
2021/08/02 09:24:16;;;;;;;;;3.75;3.50;;;;;25.07;43.28;101131.66;5038266;28;50991;-57
2021/08/02 09:26:41;;;;;;;;;4.00;4.00;;;;;25.08;43.61;101130.56;5038178;28;51336;-56
2021/08/02 09:29:09;;;;;;;;;3.00;3.00;;;;;25.09;43.47;101135.00;5037747;28;51987;-56
2021/08/02 09:31:40;;;;;;;;;4.00;3.75;;;;;25.11;43.47;101138.38;5037701;28;51378;-56
2021/08/02 09:34:08;;;;;;;;;4.00;2.00;;;;;25.10;43.30;101133.91;5037899;28;50974;-56
2021/08/02 09:36:43;;;;;;;;;6.50;3.00;;;;;25.13;43.83;101135.38;5038409;28;51189;-57
2021/08/02 09:39:11;;;;;;;;;4.50;3.00;;;;;25.13;43.44;101136.22;5037637;28;51175;-56
2021/08/02 09:41:36;;;;;;;;;5.75;4.75;;;;;25.14;43.41;101131.53;5037982;28;51320;-56
2021/08/02 09:44:05;;;;;;;;;5.75;3.75;;;;;25.16;43.43;101126.56;5037479;28;51210;-55
2021/08/02 09:46:30;;;;;;;;;4.25;4.25;;;;;25.18;43.36;101133.53;5037757;28;50973;-58
2021/08/02 09:49:03;;;;;;;;;3.00;3.00;;;;;25.19;43.22;101135.22;5037416;28;52013;-56
2021/08/02 09:51:42;;;;;;;;;5.50;4.50;;;;;25.21;43.26;101138.56;5036562;28;51037;-56
2021/08/02 09:54:08;;;;;;;;;5.50;4.50;;;;;25.24;43.18;101138.09;5038070;28;51115;-56
2021/08/02 09:56:35;;;;;;;;;7.25;3.75;;;;;25.25;43.29;101123.16;5037872;28;51138;-56
2021/08/02 09:59:01;;;;;;;;;5.50;4.00;;;;;25.27;43.18;101125.66;5037268;28;51898;-57
2021/08/02 10:01:27;;;;;;;;;3.00;2.00;;;;;25.29;43.16;101123.47;5037868;28;51014;-58
2021/08/02 10:03:53;;;;;;;;;3.00;3.00;;;;;25.29;43.07;101124.31;5037330;28;51008;-57
2021/08/02 10:06:18;;;;;;;;;5.75;3.50;;;;;25.28;43.32;101122.66;5037616;28;51073;-56
2021/08/02 10:08:44;;;;;;;;;4.00;2.25;;;;;25.28;43.29;101125.41;5037121;28;51009;-55
2021/08/02 10:11:09;;;;;;;;;6.00;3.00;;;;;25.30;43.16;101125.16;5037530;28;51057;-56
2021/08/02 10:13:38;;;;;;;;;4.00;4.00;;;;;25.29;43.22;101127.09;5037583;28;51377;-55
2021/08/02 10:16:07;;;;;;;;;8.25;4.25;;;;;25.29;42.90;101118.78;5037505;28;50975;-56
2021/08/02 10:18:32;;;;;;;;;9.00;4.25;;;;;25.29;42.87;101123.47;5036622;28;51963;-55
2021/08/02 10:21:07;;;;;;;;;3.75;2.25;;;;;25.29;42.75;101121.56;5037302;28;51346;-56
2021/08/02 10:23:32;;;;;;;;;3.75;2.00;;;;;25.29;42.96;101121.56;5037137;28;51367;-56
2021/08/02 10:25:58;;;;;;;;;7.25;5.00;;;;;25.28;43.01;101122.66;5037013;28;51234;-55
2021/08/02 10:28:23;;;;;;;;;4.50;3.50;;;;;25.27;42.93;101123.75;5035948;28;52118;-56
2021/08/02 10:31:04;;;;;;;;;4.25;4.00;;;;;25.27;43.10;101123.75;5036939;28;51164;-56
2021/08/02 10:33:37;;;;;;;;;3.75;3.00;;;;;25.27;43.00;101123.75;5036671;28;51097;-56
2021/08/02 10:36:14;;;;;;;;;4.75;4.00;;;;;25.28;42.94;101121.81;5037119;28;51243;-55
2021/08/02 10:38:42;;;;;;;;;5.75;4.00;;;;;25.28;42.91;101127.34;5036581;28;51222;-56
2021/08/02 10:41:08;;;;;;;;;3.00;3.00;;;;;25.28;42.86;101130.97;5036972;28;51092;-56
2021/08/02 10:43:38;;;;;;;;;3.75;2.00;;;;;25.29;42.96;101117.94;5036431;28;51177;-53
2021/08/02 10:46:17;;;;;;;;;3.75;3.00;;;;;25.29;42.76;101127.09;5036785;28;51026;-55
2021/08/02 10:48:44;;;;;;;;;3.75;3.00;;;;;25.31;42.78;101124.06;5036624;28;52165;-55
2021/08/02 10:51:15;;;;;;;;;7.00;4.00;;;;;25.31;43.10;101121.28;5036303;28;51239;-56
2021/08/02 10:53:41;;;;;;;;;5.25;5.25;;;;;25.30;42.89;101119.63;5036791;28;51149;-56
2021/08/02 10:56:07;;;;;;;;;8.25;6.75;;;;;25.30;42.92;101123.22;5036866;28;51244;-55
2021/08/02 10:58:40;;;;;;;;;7.50;5.25;;;;;25.31;42.64;101115.75;5036328;28;51892;-53
2021/08/02 11:01:11;;;;;;;;;7.25;7.25;;;;;25.31;42.67;101115.75;5036280;28;51000;-56
2021/08/02 11:03:38;;;;;;;;;7.75;7.25;;;;;25.32;42.67;101117.44;5035916;28;51118;-56
2021/08/02 11:06:07;;;;;;;;;9.00;7.50;;;;;25.32;42.69;101111.88;5036446;28;51062;-55
2021/08/02 11:08:50;;;;;;;;;7.50;6.50;;;;;25.31;42.97;101119.38;5035923;28;52011;-55
2021/08/02 11:11:26;;;;;;;;;11.00;7.25;;;;;25.33;42.83;101116.38;5036044;28;51148;-54
2021/08/02 11:14:14;;;;;;;;;9.50;8.25;;;;;25.32;42.96;101121.06;5036151;28;51022;-56
2021/08/02 11:16:52;;;;;;;;;14.25;10.00;;;;;25.31;42.71;101119.38;5036374;28;51223;-55
2021/08/02 11:19:20;;;;;;;;;12.25;8.25;;;;;25.32;42.96;101111.88;5035514;28;51936;-55
2021/08/02 11:21:47;;;;;;;;;12.00;9.75;;;;;25.32;42.74;101114.66;5036497;28;51479;-56
2021/08/02 11:24:14;;;;;;;;;11.50;10.75;;;;;25.32;42.82;101109.97;5036047;28;51326;-56
2021/08/02 11:27:08;;;;;;;;;12.00;10.00;;;;;25.32;42.84;101107.22;5036379;28;51109;-54